Time;durP1;ratioP1;P1;durP2;ratioP2;P2;SDS_P1;SDS_P2;PMS_P1;PMS_P2;Temp;Humidity;BMP_temperature;BMP_pressure;BME280_temperature;BME280_humidity;BME280_pressure;Samples;Min_cycle;Max_cycle;Signal;HPM_P1;HPM_P2
2021/07/09 00:01:11;;;;;;;7.72;7.03;;;19.60;63.00;;;;;;4931042;29;20036;-74
2021/07/09 00:03:37;;;;;;;9.45;6.88;;;19.60;63.20;;;;;;4931291;29;20428;-73
2021/07/09 00:06:04;;;;;;;7.55;6.82;;;19.60;63.30;;;;;;4930437;29;20050;-73
2021/07/09 00:08:30;;;;;;;7.35;6.65;;;19.50;63.20;;;;;;4930841;29;20380;-73
2021/07/09 00:10:56;;;;;;;7.60;6.90;;;19.50;63.30;;;;;;4931123;29;20039;-73
2021/07/09 00:13:22;;;;;;;7.90;7.20;;;19.50;63.40;;;;;;4930396;29;20036;-73
2021/07/09 00:15:48;;;;;;;7.60;6.70;;;19.40;63.30;;;;;;4931411;29;20428;-73
2021/07/09 00:18:14;;;;;;;7.47;6.78;;;19.40;63.40;;;;;;4930610;29;20020;-73
2021/07/09 00:20:40;;;;;;;8.82;7.30;;;19.30;63.30;;;;;;4931196;29;20070;-73
2021/07/09 00:23:07;;;;;;;7.60;6.95;;;19.30;63.50;;;;;;4931439;29;20024;-73
2021/07/09 00:25:33;;;;;;;9.45;8.25;;;19.30;63.60;;;;;;4930816;29;20043;-73
2021/07/09 00:27:59;;;;;;;10.40;7.57;;;19.30;63.70;;;;;;4928023;29;20162;-73
2021/07/09 00:30:25;;;;;;;9.20;8.02;;;19.30;63.70;;;;;;4912099;29;20512;-73
2021/07/09 00:32:50;;;;;;;8.75;7.75;;;19.20;63.60;;;;;;4910644;29;20028;-73
2021/07/09 00:35:16;;;;;;;8.20;7.40;;;19.20;63.70;;;;;;4926483;29;20066;-72
2021/07/09 00:37:42;;;;;;;8.80;8.00;;;19.20;63.70;;;;;;4930806;29;20023;-73
2021/07/09 00:40:09;;;;;;;9.70;7.10;;;19.20;63.80;;;;;;4930953;29;20040;-73
2021/07/09 00:42:35;;;;;;;7.45;6.78;;;19.20;63.90;;;;;;4930495;29;20086;-72
2021/07/09 00:45:04;;;;;;;8.48;7.35;;;19.20;64.00;;;;;;4928976;29;20483;-72
2021/07/09 00:47:30;;;;;;;9.18;8.27;;;19.20;64.10;;;;;;4930418;29;20032;-73
2021/07/09 00:49:56;;;;;;;8.07;7.35;;;19.20;64.10;;;;;;4929048;29;20035;-74
2021/07/09 00:52:22;;;;;;;8.50;7.60;;;19.20;64.10;;;;;;4928796;29;20059;-72
2021/07/09 00:54:48;;;;;;;8.77;7.97;;;19.20;64.20;;;;;;4928696;29;20547;-72
2021/07/09 00:57:14;;;;;;;9.23;7.53;;;19.20;64.80;;;;;;4930827;29;20034;-73
2021/07/09 00:59:42;;;;;;;9.93;7.40;;;19.10;64.10;;;;;;4930142;29;20059;-73
2021/07/09 01:02:08;;;;;;;10.23;7.45;;;19.10;64.10;;;;;;4929922;29;20555;-73
2021/07/09 01:04:34;;;;;;;8.60;7.75;;;19.10;64.10;;;;;;4929271;29;20028;-74
2021/07/09 01:07:01;;;;;;;9.10;8.15;;;19.20;64.40;;;;;;4930372;29;20095;-73
2021/07/09 01:09:27;;;;;;;9.57;8.68;;;19.10;64.20;;;;;;4914635;29;20036;-73
2021/07/09 01:11:53;;;;;;;9.85;8.23;;;19.10;64.20;;;;;;4911304;29;20060;-73
2021/07/09 01:14:22;;;;;;;10.10;7.93;;;19.10;64.30;;;;;;4919201;29;20039;-73
2021/07/09 01:16:49;;;;;;;8.43;7.43;;;19.10;64.40;;;;;;4930445;29;20035;-73
2021/07/09 01:19:40;;;;;;;7.55;6.85;;;19.10;64.40;;;;;;4944048;28;20512;-73
2021/07/09 01:22:19;;;;;;;8.90;8.00;;;19.10;64.40;;;;;;4913663;29;20043;-73
2021/07/09 01:24:45;;;;;;;8.32;7.53;;;19.10;64.40;;;;;;4930296;29;20047;-72
2021/07/09 01:27:11;;;;;;;8.50;7.32;;;19.10;64.40;;;;;;4930732;29;20268;-73
2021/07/09 01:29:38;;;;;;;14.00;7.82;;;19.10;64.40;;;;;;4929470;29;20074;-73
2021/07/09 01:32:04;;;;;;;9.48;8.52;;;19.10;65.10;;;;;;4915187;29;20020;-73
2021/07/09 01:34:30;;;;;;;9.15;8.13;;;19.10;64.60;;;;;;4911064;29;20043;-74
2021/07/09 01:37:16;;;;;;;9.55;7.28;;;19.10;64.60;;;;;;4912021;29;20032;-73
2021/07/09 01:39:43;;;;;;;9.25;8.13;;;19.10;64.70;;;;;;4927832;29;20039;-73
2021/07/09 01:42:10;;;;;;;9.38;8.48;;;19.00;64.50;;;;;;4930643;29;20482;-73
2021/07/09 01:44:42;;;;;;;8.48;7.65;;;19.00;64.50;;;;;;4930805;29;20403;-73
2021/07/09 01:47:08;;;;;;;9.52;8.63;;;19.00;64.60;;;;;;4916830;29;20042;-73
2021/07/09 01:49:51;;;;;;;9.02;8.10;;;19.00;64.60;;;;;;4914017;29;20508;-73
2021/07/09 01:52:18;;;;;;;10.02;7.80;;;19.00;64.70;;;;;;4915061;29;20038;-74
2021/07/09 01:54:44;;;;;;;8.20;7.40;;;19.00;64.70;;;;;;4914855;29;20366;-73
2021/07/09 01:57:11;;;;;;;10.23;8.13;;;19.00;64.70;;;;;;4915189;29;20036;-73
2021/07/09 01:59:39;;;;;;;11.15;7.97;;;19.00;64.80;;;;;;4915011;29;20032;-72
2021/07/09 02:02:05;;;;;;;9.48;8.15;;;18.90;64.60;;;;;;4915351;29;20032;-78
2021/07/09 02:04:31;;;;;;;8.23;7.53;;;18.90;64.80;;;;;;4915243;29;20028;-79
2021/07/09 02:06:57;;;;;;;8.13;7.10;;;18.90;64.60;;;;;;4913650;29;20035;-80
2021/07/09 02:09:23;;;;;;;8.13;7.28;;;18.90;64.70;;;;;;4915127;29;20445;-80
2021/07/09 02:11:49;;;;;;;11.77;8.07;;;18.90;64.70;;;;;;4913752;29;20127;-73
2021/07/09 02:14:15;;;;;;;7.57;6.85;;;18.90;64.80;;;;;;4914758;29;20463;-77
2021/07/09 02:16:41;;;;;;;8.68;7.82;;;18.90;64.80;;;;;;4915017;29;20032;-73
2021/07/09 02:19:07;;;;;;;9.50;8.05;;;18.80;64.70;;;;;;4914799;29;20033;-73
2021/07/09 02:21:33;;;;;;;8.50;7.70;;;18.80;64.70;;;;;;4914767;29;20036;-77
2021/07/09 02:23:59;;;;;;;9.48;8.43;;;18.80;64.70;;;;;;4915407;29;20032;-81
2021/07/09 02:26:26;;;;;;;8.38;7.57;;;18.70;64.60;;;;;;4914696;29;20432;-76
2021/07/09 02:28:52;;;;;;;10.88;7.55;;;18.80;64.90;;;;;;4915393;29;20119;-84
2021/07/09 02:31:18;;;;;;;8.30;7.50;;;18.70;64.80;;;;;;4920424;29;20043;-79
2021/07/09 02:33:44;;;;;;;9.13;8.18;;;18.70;64.80;;;;;;4921922;29;20036;-77
2021/07/09 02:36:10;;;;;;;9.30;8.35;;;18.70;64.80;;;;;;4920830;29;20134;-74
2021/07/09 02:38:36;;;;;;;9.10;8.18;;;18.70;64.80;;;;;;4919871;29;20384;-73
2021/07/09 02:41:02;;;;;;;8.85;7.55;;;18.60;64.70;;;;;;4921345;29;20479;-82
2021/07/09 02:43:29;;;;;;;8.25;7.55;;;18.60;64.80;;;;;;4921846;29;20078;-87
2021/07/09 02:45:55;;;;;;;7.25;6.63;;;18.60;64.80;;;;;;4921099;29;20035;-79
2021/07/09 02:48:21;;;;;;;8.25;7.07;;;18.60;64.90;;;;;;4921326;29;20043;-83
2021/07/09 02:50:48;;;;;;;9.32;8.43;;;18.50;64.80;;;;;;4921139;29;20123;-80
2021/07/09 02:53:14;;;;;;;8.70;7.85;;;18.50;64.80;;;;;;4921436;29;20056;-82
2021/07/09 02:55:40;;;;;;;8.80;7.90;;;18.50;64.80;;;;;;4920705;29;20192;-78
2021/07/09 02:58:06;;;;;;;8.27;7.55;;;18.50;64.90;;;;;;4920555;29;20543;-76
2021/07/09 03:00:32;;;;;;;7.53;6.82;;;18.50;64.90;;;;;;4921070;29;20067;-77
2021/07/09 03:02:58;;;;;;;9.15;8.20;;;18.40;64.80;;;;;;4920715;29;20050;-81
2021/07/09 03:05:24;;;;;;;11.05;7.75;;;18.40;64.90;;;;;;4921094;29;20508;-80
2021/07/09 03:07:50;;;;;;;9.68;7.93;;;18.40;65.00;;;;;;4920293;29;20033;-81
2021/07/09 03:10:16;;;;;;;8.75;7.53;;;18.40;65.00;;;;;;4921359;29;20044;-82
2021/07/09 03:12:42;;;;;;;8.88;7.97;;;18.40;65.00;;;;;;4920576;29;20059;-75
2021/07/09 03:15:10;;;;;;;7.90;7.10;;;18.40;65.10;;;;;;4920642;29;20455;-74
2021/07/09 03:17:36;;;;;;;8.98;8.07;;;18.30;64.90;;;;;;4920759;29;20035;-73
2021/07/09 03:20:08;;;;;;;8.38;7.57;;;18.30;65.00;;;;;;4919038;29;20058;-78
2021/07/09 03:22:34;;;;;;;7.72;6.93;;;18.30;65.00;;;;;;4935908;29;20115;-78
2021/07/09 03:25:00;;;;;;;9.23;8.30;;;18.30;65.00;;;;;;4919836;29;20074;-83
2021/07/09 03:27:26;;;;;;;9.02;7.68;;;18.30;65.10;;;;;;4921189;29;20059;-85
2021/07/09 03:29:52;;;;;;;8.52;7.68;;;18.30;65.10;;;;;;4920942;29;20507;-78
2021/07/09 03:32:18;;;;;;;9.80;7.82;;;18.20;65.00;;;;;;4935052;29;20032;-74
2021/07/09 03:34:44;;;;;;;7.90;7.13;;;18.30;65.20;;;;;;4920292;29;20062;-73
2021/07/09 03:37:10;;;;;;;9.40;8.40;;;18.20;65.00;;;;;;4920480;29;20032;-75
2021/07/09 03:39:36;;;;;;;7.97;7.18;;;18.20;65.10;;;;;;4920908;29;20032;-79
2021/07/09 03:42:02;;;;;;;7.53;6.57;;;18.20;65.10;;;;;;4917749;29;20051;-79
2021/07/09 03:44:28;;;;;;;7.90;7.15;;;18.20;65.10;;;;;;4917868;29;20035;-85
2021/07/09 03:46:54;;;;;;;8.50;7.38;;;18.20;65.10;;;;;;4917516;29;20036;-80
2021/07/09 03:49:20;;;;;;;8.27;7.45;;;18.20;65.20;;;;;;4917311;29;20031;-75
2021/07/09 03:51:46;;;;;;;8.85;7.30;;;18.20;65.20;;;;;;4917415;29;20046;-74
2021/07/09 03:54:12;;;;;;;8.50;7.65;;;18.20;65.20;;;;;;4917332;29;20036;-78
2021/07/09 03:56:38;;;;;;;8.65;7.63;;;18.10;65.10;;;;;;4917566;29;20044;-79
2021/07/09 03:59:04;;;;;;;7.22;6.63;;;18.10;65.10;;;;;;4917837;29;20495;-76
2021/07/09 04:01:30;;;;;;;8.52;7.55;;;18.10;65.10;;;;;;4915437;29;20064;-78
2021/07/09 04:03:56;;;;;;;8.05;7.25;;;18.10;65.20;;;;;;4917769;29;20028;-78
2021/07/09 04:06:22;;;;;;;8.20;7.40;;;18.10;65.20;;;;;;4917119;29;20114;-73
2021/07/09 04:08:48;;;;;;;8.82;7.95;;;18.10;65.30;;;;;;4916890;29;20032;-73
2021/07/09 04:11:14;;;;;;;8.73;7.32;;;18.10;65.30;;;;;;4916032;29;20056;-77
2021/07/09 04:13:40;;;;;;;7.55;6.82;;;18.10;65.30;;;;;;4917191;29;20032;-75
2021/07/09 04:16:06;;;;;;;10.13;7.80;;;18.10;65.30;;;;;;4915841;29;20044;-74
2021/07/09 04:18:34;;;;;;;9.38;7.80;;;18.00;65.20;;;;;;4916888;29;20115;-78
2021/07/09 04:21:01;;;;;;;8.82;7.93;;;18.10;65.40;;;;;;4917078;29;20032;-82
2021/07/09 04:23:27;;;;;;;7.90;6.55;;;18.10;65.40;;;;;;4917183;29;20357;-74
2021/07/09 04:25:53;;;;;;;10.30;7.93;;;18.00;65.30;;;;;;4917197;29;20060;-73
2021/07/09 04:28:18;;;;;;;9.85;7.82;;;18.10;65.50;;;;;;4916652;29;20515;-74
2021/07/09 04:30:44;;;;;;;10.35;8.13;;;18.10;65.50;;;;;;4915689;29;20043;-83
2021/07/09 04:33:10;;;;;;;9.43;7.65;;;18.00;65.30;;;;;;4917126;29;20408;-76
2021/07/09 04:35:36;;;;;;;8.13;7.40;;;18.00;65.30;;;;;;4916610;29;20055;-77
2021/07/09 04:38:02;;;;;;;8.02;7.22;;;18.10;65.50;;;;;;4917268;29;20104;-76
2021/07/09 04:40:28;;;;;;;7.50;6.88;;;18.10;65.50;;;;;;4916442;29;20122;-83
2021/07/09 04:42:54;;;;;;;8.40;7.47;;;18.10;65.50;;;;;;4916931;29;20111;-74
2021/07/09 04:45:20;;;;;;;7.88;7.07;;;18.00;65.40;;;;;;4915136;29;20032;-73
2021/07/09 04:47:46;;;;;;;7.90;7.13;;;18.10;66.10;;;;;;4913135;29;20035;-72
2021/07/09 04:50:12;;;;;;;8.05;6.60;;;18.00;65.40;;;;;;4913454;29;20043;-77
2021/07/09 04:52:38;;;;;;;7.72;6.97;;;18.10;65.60;;;;;;4912945;29;20028;-75
2021/07/09 04:55:05;;;;;;;7.65;6.85;;;18.10;65.60;;;;;;4913212;29;20040;-77
2021/07/09 04:57:32;;;;;;;8.23;7.13;;;18.10;65.60;;;;;;4915782;29;20062;-75
2021/07/09 04:59:58;;;;;;;8.18;7.32;;;18.10;65.60;;;;;;4931714;29;20484;-74
2021/07/09 05:02:25;;;;;;;7.93;7.13;;;18.10;65.50;;;;;;4928557;29;20363;-73
2021/07/09 05:04:52;;;;;;;7.60;6.88;;;18.10;65.60;;;;;;4911676;29;20118;-75
2021/07/09 05:07:18;;;;;;;7.57;6.88;;;18.10;65.50;;;;;;4912451;29;20059;-79
2021/07/09 05:09:44;;;;;;;7.40;6.70;;;18.20;65.70;;;;;;4928957;29;20067;-80
2021/07/09 05:12:10;;;;;;;7.30;6.60;;;18.10;65.50;;;;;;4928928;29;20055;-74
2021/07/09 05:14:36;;;;;;;7.72;6.93;;;18.10;65.60;;;;;;4930233;29;20036;-82
2021/07/09 05:17:02;;;;;;;9.52;7.13;;;18.20;65.70;;;;;;4930647;29;20031;-72
2021/07/09 05:19:28;;;;;;;8.27;7.50;;;18.20;65.70;;;;;;4929814;29;20097;-72
2021/07/09 05:21:54;;;;;;;8.00;7.20;;;18.20;65.80;;;;;;4930097;29;20032;-74
2021/07/09 05:24:24;;;;;;;9.25;7.57;;;18.20;65.70;;;;;;4928953;29;20034;-75
2021/07/09 05:26:50;;;;;;;9.63;7.45;;;18.20;65.70;;;;;;4930128;29;20031;-79
2021/07/09 05:29:16;;;;;;;7.82;7.03;;;18.30;65.90;;;;;;4930131;29;20035;-83
2021/07/09 05:31:42;;;;;;;8.10;7.30;;;18.30;65.90;;;;;;4930528;29;20031;-78
2021/07/09 05:34:09;;;;;;;7.80;6.95;;;18.30;65.90;;;;;;4909310;29;20036;-77
2021/07/09 05:36:36;;;;;;;7.57;6.88;;;18.30;65.90;;;;;;4910756;29;20584;-73
2021/07/09 05:39:03;;;;;;;8.82;6.88;;;18.30;65.90;;;;;;4924304;29;20039;-74
2021/07/09 05:41:29;;;;;;;7.80;6.80;;;18.30;65.80;;;;;;4928336;29;20118;-76
2021/07/09 05:43:55;;;;;;;8.15;7.30;;;18.40;66.00;;;;;;4913562;29;20139;-72
2021/07/09 05:46:21;;;;;;;10.68;8.95;;;18.40;66.00;;;;;;4922445;29;20031;-74
2021/07/09 05:48:46;;;;;;;11.63;9.20;;;18.40;66.20;;;;;;4928117;29;20032;-73
2021/07/09 05:51:20;;;;;;;10.48;9.32;;;18.50;66.50;;;;;;4924408;29;20047;-73
2021/07/09 05:53:46;;;;;;;;;;;18.60;67.00;;;;;;4923877;29;20024;-74
2021/07/09 05:56:12;;;;;;;9.50;8.30;;;18.50;66.30;;;;;;4927215;29;19919;-74
2021/07/09 05:58:38;;;;;;;11.13;8.73;;;18.60;66.50;;;;;;4928548;29;20459;-71
2021/07/09 06:01:06;;;;;;;13.68;9.25;;;18.60;66.60;;;;;;4929233;29;20036;-72
2021/07/09 06:03:35;;;;;;;11.32;8.82;;;18.60;66.70;;;;;;4916985;29;20032;-71
2021/07/09 06:06:01;;;;;;;9.68;7.85;;;18.70;67.00;;;;;;4909735;29;20044;-73
2021/07/09 06:08:29;;;;;;;10.95;8.15;;;18.70;67.10;;;;;;4919501;29;20059;-71
2021/07/09 06:10:58;;;;;;;8.68;7.53;;;18.70;67.30;;;;;;4927894;29;20032;-74
2021/07/09 06:13:24;;;;;;;13.10;8.25;;;18.70;67.30;;;;;;4919818;29;20659;-72
2021/07/09 06:15:50;;;;;;;8.35;6.88;;;18.70;67.40;;;;;;4906754;29;20530;-74
2021/07/09 06:18:16;;;;;;;17.17;7.70;;;18.70;67.40;;;;;;4917041;29;20044;-72
2021/07/09 06:20:42;;;;;;;10.98;7.40;;;18.80;67.70;;;;;;4928410;29;20036;-73
2021/07/09 06:23:08;;;;;;;7.47;6.30;;;18.80;67.60;;;;;;4917511;29;20028;-73
2021/07/09 06:25:34;;;;;;;8.02;6.80;;;18.90;67.80;;;;;;4910427;29;20120;-76
2021/07/09 06:28:00;;;;;;;17.42;7.40;;;18.90;67.80;;;;;;4915999;29;20032;-75
2021/07/09 06:30:26;;;;;;;11.18;7.32;;;19.00;67.90;;;;;;4927689;29;20031;-74
2021/07/09 06:32:52;;;;;;;9.27;6.43;;;19.00;68.30;;;;;;4916109;29;20255;-74
2021/07/09 06:35:18;;;;;;;12.63;7.10;;;19.10;68.00;;;;;;4929255;29;20051;-72
2021/07/09 06:37:44;;;;;;;11.98;6.93;;;19.10;67.90;;;;;;4926812;29;20110;-73
2021/07/09 06:40:11;;;;;;;7.32;6.07;;;19.20;67.90;;;;;;4928564;29;20028;-73
2021/07/09 06:42:37;;;;;;;7.15;5.70;;;19.20;67.80;;;;;;4929092;29;20035;-73
2021/07/09 06:45:04;;;;;;;6.93;5.68;;;19.20;67.70;;;;;;4943273;29;20043;-73
2021/07/09 06:47:30;;;;;;;6.93;4.80;;;19.30;67.80;;;;;;4929035;29;20483;-72
2021/07/09 06:49:56;;;;;;;9.18;5.13;;;19.30;67.70;;;;;;4929144;29;20059;-78
2021/07/09 06:52:22;;;;;;;6.85;4.25;;;19.40;67.70;;;;;;4928340;29;20067;-73
2021/07/09 06:54:48;;;;;;;6.45;4.07;;;19.50;67.80;;;;;;4927432;29;20043;-74
2021/07/09 06:57:14;;;;;;;6.72;4.10;;;19.50;67.60;;;;;;4928429;29;20205;-73
2021/07/09 06:59:42;;;;;;;5.88;3.92;;;19.60;67.60;;;;;;4928952;29;20036;-74
2021/07/09 07:02:08;;;;;;;5.30;3.50;;;19.60;67.40;;;;;;4928556;29;20043;-73
2021/07/09 07:04:34;;;;;;;5.75;3.63;;;19.70;67.40;;;;;;4927923;29;20099;-74
2021/07/09 07:07:00;;;;;;;8.60;4.40;;;19.80;67.50;;;;;;4928712;29;20467;-73
2021/07/09 07:09:26;;;;;;;6.20;4.25;;;20.00;67.90;;;;;;4926945;29;20039;-75
2021/07/09 07:11:52;;;;;;;7.45;4.82;;;20.20;67.80;;;;;;4927983;29;20075;-74
2021/07/09 07:14:18;;;;;;;4.78;4.22;;;20.40;67.60;;;;;;4928021;29;20469;-74
2021/07/09 07:16:44;;;;;;;7.57;4.32;;;20.50;67.40;;;;;;4927740;29;20111;-74
2021/07/09 07:19:10;;;;;;;5.35;4.38;;;20.70;67.30;;;;;;4917217;29;20032;-73
2021/07/09 07:21:36;;;;;;;6.15;4.13;;;20.80;67.00;;;;;;4913339;29;20044;-72
2021/07/09 07:24:02;;;;;;;6.78;4.55;;;20.80;66.60;;;;;;4927896;29;20404;-76
2021/07/09 07:26:28;;;;;;;6.63;4.18;;;20.80;66.50;;;;;;4932521;29;20112;-75
2021/07/09 07:28:54;;;;;;;6.20;4.18;;;20.70;66.30;;;;;;4931900;29;20122;-73
2021/07/09 07:31:20;;;;;;;5.95;4.80;;;20.60;66.20;;;;;;4930434;29;20118;-74
2021/07/09 07:33:46;;;;;;;6.88;4.32;;;20.50;66.10;;;;;;4930170;29;20162;-73
2021/07/09 07:36:13;;;;;;;5.43;4.53;;;20.50;66.20;;;;;;4911251;29;20048;-75
2021/07/09 07:38:39;;;;;;;9.18;4.20;;;20.40;66.10;;;;;;4931596;29;20275;-76
2021/07/09 07:41:05;;;;;;;5.55;4.50;;;20.40;66.20;;;;;;4931562;29;20499;-73
2021/07/09 07:43:31;;;;;;;7.05;4.50;;;20.40;66.20;;;;;;4930378;29;20130;-77
2021/07/09 07:45:57;;;;;;;5.85;4.70;;;20.40;66.20;;;;;;4930125;29;20040;-73
2021/07/09 07:48:23;;;;;;;5.80;4.05;;;20.40;66.10;;;;;;4936936;29;20380;-73
2021/07/09 07:50:49;;;;;;;6.22;4.80;;;20.50;66.00;;;;;;4912091;29;20036;-73
2021/07/09 07:53:15;;;;;;;8.77;4.35;;;20.60;66.00;;;;;;4922735;29;20114;-73
2021/07/09 07:55:41;;;;;;;4.90;4.38;;;20.70;65.90;;;;;;4931746;29;20546;-73
2021/07/09 07:58:07;;;;;;;5.47;4.13;;;20.80;65.80;;;;;;4931172;29;20099;-73
2021/07/09 08:00:33;;;;;;;6.35;5.00;;;21.00;65.90;;;;;;4930080;29;20036;-72
2021/07/09 08:02:59;;;;;;;6.93;4.90;;;21.10;65.80;;;;;;4922826;29;20058;-73
2021/07/09 08:05:26;;;;;;;3.92;3.53;;;21.30;65.70;;;;;;4910315;29;20063;-73
2021/07/09 08:07:53;;;;;;;4.63;3.90;;;21.30;65.40;;;;;;4919243;29;20038;-72
2021/07/09 08:10:19;;;;;;;7.18;4.32;;;21.40;65.40;;;;;;4930788;29;20158;-72
2021/07/09 08:12:44;;;;;;;4.50;4.07;;;21.50;65.70;;;;;;4930796;29;20147;-72
2021/07/09 08:15:11;;;;;;;6.22;4.32;;;21.80;66.00;;;;;;4930949;29;20039;-72
2021/07/09 08:17:37;;;;;;;5.00;4.40;;;22.10;65.40;;;;;;4930907;29;20035;-72
2021/07/09 08:20:05;;;;;;;5.00;4.00;;;22.30;64.80;;;;;;4930626;29;20063;-72
2021/07/09 08:22:31;;;;;;;4.50;3.92;;;22.50;64.40;;;;;;4930569;29;20087;-73
2021/07/09 08:24:57;;;;;;;5.00;4.07;;;22.70;64.20;;;;;;4931456;29;20055;-72
2021/07/09 08:27:23;;;;;;;4.30;3.90;;;22.80;64.00;;;;;;4930447;29;20042;-71
2021/07/09 08:29:48;;;;;;;4.30;3.20;;;23.10;64.00;;;;;;4929624;29;20044;-71
2021/07/09 08:32:14;;;;;;;5.60;4.22;;;23.70;63.90;;;;;;4928509;29;20506;-71
2021/07/09 08:34:40;;;;;;;3.75;3.45;;;24.10;63.20;;;;;;4911843;29;20147;-71
2021/07/09 08:37:06;;;;;;;4.25;3.80;;;24.40;62.60;;;;;;4911907;29;20040;-74
2021/07/09 08:39:32;;;;;;;4.57;3.40;;;24.60;62.70;;;;;;4923663;29;20451;-70
2021/07/09 08:41:58;;;;;;;3.95;3.40;;;24.60;61.80;;;;;;4911500;29;20040;-73
2021/07/09 08:44:24;;;;;;;6.80;3.67;;;24.70;61.70;;;;;;4929481;29;20036;-73
2021/07/09 08:46:54;;;;;;;4.47;3.35;;;24.90;61.60;;;;;;4929540;29;20136;-73
2021/07/09 08:49:22;;;;;;;5.72;4.20;;;25.10;61.30;;;;;;4930040;29;20038;-70
2021/07/09 08:51:49;;;;;;;4.95;3.22;;;25.30;60.70;;;;;;4930582;29;20028;-75
2021/07/09 08:54:18;;;;;;;3.50;3.00;;;25.40;60.10;;;;;;4929878;29;20905;-73
2021/07/09 08:56:46;;;;;;;3.55;3.13;;;25.40;59.60;;;;;;4918546;29;20040;-72
2021/07/09 08:59:12;;;;;;;4.03;3.33;;;25.50;59.40;;;;;;4925036;29;20503;-72
2021/07/09 09:01:52;;;;;;;4.18;2.25;;;25.80;58.70;;;;;;4929019;29;20119;-74
2021/07/09 09:04:36;;;;;;;3.10;2.38;;;26.30;57.40;;;;;;4929061;29;20487;-71
2021/07/09 09:07:07;;;;;;;3.97;2.38;;;26.60;56.00;;;;;;4930767;29;20035;-73
2021/07/09 09:09:37;;;;;;;2.58;2.00;;;26.70;55.60;;;;;;4929633;29;20503;-72
2021/07/09 09:12:10;;;;;;;2.60;2.40;;;26.50;55.30;;;;;;4944375;29;20063;-72
2021/07/09 09:14:40;;;;;;;2.87;2.23;;;26.20;55.80;;;;;;4928333;29;20647;-71
2021/07/09 09:17:28;;;;;;;2.95;2.45;;;25.90;56.40;;;;;;4928708;29;20032;-70
2021/07/09 09:20:15;;;;;;;2.92;2.15;;;25.70;56.70;;;;;;4913700;29;20039;-71
2021/07/09 09:23:02;;;;;;;2.15;1.95;;;25.60;56.90;;;;;;4917498;29;20038;-72
2021/07/09 09:25:31;;;;;;;4.45;1.83;;;25.50;57.00;;;;;;4910622;29;20032;-73
2021/07/09 09:28:00;;;;;;;4.07;1.90;;;25.60;57.10;;;;;;4915467;29;20107;-73
2021/07/09 09:30:26;;;;;;;3.35;1.60;;;25.60;56.80;;;;;;4929851;29;20042;-73
2021/07/09 09:32:55;;;;;;;2.33;1.70;;;25.50;56.50;;;;;;4928296;29;20032;-73
2021/07/09 09:35:29;;;;;;;2.83;1.70;;;25.30;56.40;;;;;;4912187;29;20131;-75
2021/07/09 09:38:01;;;;;;;2.55;1.75;;;25.20;56.70;;;;;;4928280;29;20032;-72
2021/07/09 09:40:28;;;;;;;3.67;1.92;;;25.20;56.60;;;;;;4927002;29;20139;-73
2021/07/09 09:42:55;;;;;;;2.60;2.22;;;25.10;56.70;;;;;;4926205;29;20032;-72
2021/07/09 09:45:23;;;;;;;2.75;2.30;;;25.10;57.40;;;;;;4918385;29;20479;-74
2021/07/09 09:47:50;;;;;;;3.20;2.28;;;25.10;57.60;;;;;;4909436;29;20388;-74
2021/07/09 09:50:21;;;;;;;2.67;2.13;;;25.10;57.80;;;;;;4910343;29;20028;-72
2021/07/09 09:52:52;;;;;;;2.42;2.05;;;25.30;57.90;;;;;;4915156;29;20042;-72
2021/07/09 09:55:18;;;;;;;4.68;2.30;;;25.50;57.80;;;;;;4929363;29;20515;-75
2021/07/09 09:57:45;;;;;;;5.40;2.22;;;25.70;57.80;;;;;;4928273;29;20036;-73
2021/07/09 10:00:31;;;;;;;2.63;1.88;;;25.70;57.70;;;;;;4943501;29;20042;-72
2021/07/09 10:02:58;;;;;;;2.33;2.13;;;25.80;57.80;;;;;;4927396;29;20079;-73
2021/07/09 10:05:24;;;;;;;2.55;2.28;;;25.90;57.80;;;;;;4928337;29;20035;-72
2021/07/09 10:07:56;;;;;;;3.13;2.58;;;26.00;57.80;;;;;;4928938;29;20032;-74
2021/07/09 10:10:22;;;;;;;4.90;2.42;;;26.10;57.80;;;;;;4928681;29;20118;-73
2021/07/09 10:12:51;;;;;;;5.72;2.40;;;26.30;57.70;;;;;;4928070;29;20534;-73
2021/07/09 10:15:17;;;;;;;2.47;2.25;;;26.40;57.60;;;;;;4928326;29;20046;-72
2021/07/09 10:17:48;;;;;;;3.67;2.33;;;26.50;57.60;;;;;;4928522;29;20038;-73
2021/07/09 10:20:17;;;;;;;2.65;2.30;;;26.60;57.50;;;;;;4928004;29;20042;-74
2021/07/09 10:22:46;;;;;;;2.03;1.83;;;26.70;57.50;;;;;;4928391;29;20028;-73
2021/07/09 10:25:13;;;;;;;2.38;2.17;;;26.70;57.40;;;;;;4908561;29;20568;-74
2021/07/09 10:27:42;;;;;;;2.28;1.90;;;26.80;57.40;;;;;;4912457;29;20036;-73
2021/07/09 10:30:09;;;;;;;2.47;2.08;;;26.80;57.40;;;;;;4928669;29;20071;-73
2021/07/09 10:32:37;;;;;;;2.40;2.20;;;26.90;57.50;;;;;;4929309;29;20493;-72
2021/07/09 10:35:11;;;;;;;2.38;2.17;;;27.00;57.50;;;;;;4928224;29;20054;-73
2021/07/09 10:37:38;;;;;;;2.85;2.55;;;27.00;57.40;;;;;;4928512;29;20032;-72
2021/07/09 10:40:14;;;;;;;2.35;2.13;;;27.20;57.30;;;;;;4927207;29;20040;-72
2021/07/09 10:42:42;;;;;;;2.30;1.92;;;27.30;57.20;;;;;;4928915;29;20035;-72
2021/07/09 10:45:27;;;;;;;2.53;2.03;;;27.40;57.10;;;;;;4928069;29;20793;-72
2021/07/09 10:48:09;;;;;;;2.67;2.10;;;27.80;56.90;;;;;;4928536;29;20071;-72
2021/07/09 10:50:35;;;;;;;1.88;1.73;;;28.00;56.50;;;;;;4928686;29;20030;-71
2021/07/09 10:53:09;;;;;;;1.85;1.73;;;28.30;56.10;;;;;;4930252;29;20043;-71
2021/07/09 10:55:58;;;;;;;2.28;2.08;;;28.60;55.70;;;;;;4932466;29;20051;-71
2021/07/09 10:58:33;;;;;;;2.25;1.88;;;28.80;55.40;;;;;;4933567;29;20147;-73
2021/07/09 11:00:59;;;;;;;2.03;1.83;;;29.00;55.10;;;;;;4932562;29;20043;-72
2021/07/09 11:03:48;;;;;;;2.78;1.52;;;29.20;54.80;;;;;;4930848;29;20043;-72
2021/07/09 11:06:20;;;;;;;1.95;1.40;;;29.20;54.50;;;;;;4931946;29;20460;-71
2021/07/09 11:09:03;;;;;;;2.00;1.80;;;29.20;54.50;;;;;;4931880;29;20475;-72
2021/07/09 11:11:49;;;;;;;1.98;1.70;;;29.20;54.40;;;;;;4932340;29;20097;-73
2021/07/09 11:14:16;;;;;;;1.92;1.80;;;29.10;54.50;;;;;;4931671;29;20028;-71
2021/07/09 11:16:44;;;;;;;2.70;1.52;;;29.10;54.60;;;;;;4931366;29;20602;-72
2021/07/09 11:19:18;;;;;;;2.35;1.60;;;29.20;54.50;;;;;;4930737;29;20031;-72
2021/07/09 11:21:52;;;;;;;2.20;1.90;;;29.20;54.30;;;;;;4932156;29;20032;-72
2021/07/09 11:24:19;;;;;;;;;;;29.20;54.30;;;;;;4930878;29;20172;-73
2021/07/09 11:26:53;;;;;;;2.33;1.75;;;29.20;54.70;;;;;;4931811;29;19911;-72
2021/07/09 11:29:42;;;;;;;1.77;1.30;;;29.10;54.50;;;;;;4931524;28;20460;-73
2021/07/09 11:32:27;;;;;;;2.42;1.58;;;29.00;54.50;;;;;;4910602;29;20036;-72
2021/07/09 11:34:56;;;;;;;1.50;1.40;;;29.00;54.60;;;;;;4925637;29;20035;-72
2021/07/09 11:37:26;;;;;;;2.25;2.00;;;28.90;54.70;;;;;;4911695;29;20472;-74
2021/07/09 11:39:58;;;;;;;2.40;1.80;;;28.80;54.80;;;;;;4912551;29;20448;-73
2021/07/09 11:42:26;;;;;;;1.88;1.63;;;28.90;54.90;;;;;;4914669;29;20032;-74
2021/07/09 11:44:56;;;;;;;1.40;1.30;;;29.10;54.70;;;;;;4931940;29;20091;-72
2021/07/09 11:47:28;;;;;;;1.85;1.70;;;29.40;54.40;;;;;;4946163;29;20306;-73
2021/07/09 11:50:06;;;;;;;2.53;1.75;;;29.60;54.20;;;;;;4945765;29;20043;-72
2021/07/09 11:52:43;;;;;;;1.88;1.50;;;30.00;54.00;;;;;;4930944;29;20036;-73
2021/07/09 11:55:15;;;;;;;1.95;1.60;;;30.20;53.50;;;;;;4931353;29;20054;-72
2021/07/09 11:57:42;;;;;;;2.10;1.52;;;30.30;53.30;;;;;;4931315;29;20126;-73
2021/07/09 12:00:17;;;;;;;2.33;1.60;;;30.40;53.20;;;;;;4931661;29;20064;-73
2021/07/09 12:02:45;;;;;;;1.42;1.33;;;30.30;53.00;;;;;;4929011;29;20038;-73
2021/07/09 12:05:16;;;;;;;1.63;1.30;;;30.30;53.10;;;;;;4931285;29;20047;-73
2021/07/09 12:07:45;;;;;;;1.38;1.15;;;30.20;53.00;;;;;;4929427;29;20053;-74
2021/07/09 12:10:20;;;;;;;1.40;1.30;;;30.20;53.20;;;;;;4946396;29;20044;-72
2021/07/09 12:12:52;;;;;;;1.90;1.50;;;30.20;53.20;;;;;;4930519;29;20051;-76
2021/07/09 12:15:21;;;;;;;1.20;1.10;;;30.10;53.30;;;;;;4931170;29;20040;-75
2021/07/09 12:17:48;;;;;;;1.40;1.15;;;30.20;53.40;;;;;;4926476;29;20036;-77
2021/07/09 12:20:18;;;;;;;1.55;1.40;;;30.20;53.40;;;;;;4911733;29;20071;-74
2021/07/09 12:23:02;;;;;;;1.20;1.10;;;30.30;53.20;;;;;;4914092;29;20031;-74
2021/07/09 12:25:33;;;;;;;1.02;1.00;;;30.30;53.00;;;;;;4931042;29;20039;-72
2021/07/09 12:28:00;;;;;;;1.20;1.10;;;30.30;53.00;;;;;;4930897;29;20546;-72
2021/07/09 12:30:35;;;;;;;2.03;1.20;;;30.30;53.00;;;;;;4911270;29;20048;-77
2021/07/09 12:33:07;;;;;;;1.00;0.90;;;30.20;53.00;;;;;;4906806;29;20127;-72
2021/07/09 12:35:34;;;;;;;2.03;1.15;;;30.20;53.00;;;;;;4929467;29;20099;-75
2021/07/09 12:38:09;;;;;;;1.65;1.20;;;30.20;53.00;;;;;;4929185;29;20032;-72
2021/07/09 12:40:37;;;;;;;1.33;1.23;;;30.10;53.00;;;;;;4945019;29;20094;-72
2021/07/09 12:43:19;;;;;;;1.65;1.40;;;30.00;53.10;;;;;;4944979;29;20252;-72
2021/07/09 12:46:00;;;;;;;1.47;1.20;;;30.00;53.10;;;;;;4931237;29;20503;-73
2021/07/09 12:48:39;;;;;;;1.40;1.30;;;29.90;53.10;;;;;;4928776;29;20270;-74
2021/07/09 12:51:23;;;;;;;2.80;1.00;;;29.90;53.20;;;;;;4930370;29;20036;-72